Time;durP1;ratioP1;P1;durP2;ratioP2;P2;SDS_P1;SDS_P2;PMS_P1;PMS_P2;Temp;Humidity;BMP_temperature;BMP_pressure;BME280_temperature;BME280_humidity;BME280_pressure;Samples;Min_cycle;Max_cycle;Signal;HPM_P1;HPM_P2
2022/05/15 05:00:31;;;;;;;7.53;5.90;;;14.80;97.20;;;;;;1742421;28;20180;-76
2022/05/15 05:01:25;;;;;;;8.63;6.07;;;14.90;97.20;;;;;;1741646;28;20223;-77
2022/05/15 05:02:16;;;;;;;8.25;6.05;;;14.90;97.20;;;;;;1741707;28;20199;-76
2022/05/15 05:03:07;;;;;;;7.20;6.25;;;14.90;97.20;;;;;;1741613;28;20623;-77
2022/05/15 05:03:59;;;;;;;6.80;6.10;;;14.90;97.20;;;;;;1741754;28;20229;-77
2022/05/15 05:04:50;;;;;;;7.43;5.95;;;15.00;97.20;;;;;;1742244;28;20199;-76
2022/05/15 05:05:42;;;;;;;7.03;5.77;;;15.00;97.20;;;;;;1742123;28;20226;-76
2022/05/15 05:06:33;;;;;;;6.55;5.68;;;15.00;97.20;;;;;;1742585;28;20238;-77
2022/05/15 05:07:24;;;;;;;7.23;5.50;;;15.00;97.20;;;;;;1742498;28;20195;-76
2022/05/15 05:08:15;;;;;;;7.45;5.38;;;15.10;97.20;;;;;;1742164;28;20219;-77
2022/05/15 05:09:07;;;;;;;6.87;5.60;;;15.10;97.20;;;;;;1742861;28;20203;-76
2022/05/15 05:09:58;;;;;;;8.18;5.72;;;15.10;97.20;;;;;;1742933;28;20603;-76
2022/05/15 05:10:50;;;;;;;8.73;5.43;;;15.10;97.20;;;;;;1742549;28;20227;-76
2022/05/15 05:11:41;;;;;;;6.32;5.30;;;15.10;97.20;;;;;;1742931;28;20434;-76
2022/05/15 05:12:33;;;;;;;6.53;5.35;;;15.20;97.20;;;;;;1743009;28;20575;-76
2022/05/15 05:13:24;;;;;;;5.85;5.20;;;15.20;97.20;;;;;;1738752;28;20592;-77
2022/05/15 05:14:16;;;;;;;7.00;5.60;;;15.20;97.20;;;;;;1742355;28;20218;-76
2022/05/15 05:15:09;;;;;;;7.38;5.18;;;15.20;97.20;;;;;;1741376;28;20810;-76
2022/05/15 05:16:02;;;;;;;6.90;5.53;;;15.20;97.20;;;;;;1741687;28;20214;-77
2022/05/15 05:16:53;;;;;;;6.28;5.38;;;15.30;97.20;;;;;;1741459;28;20214;-77
2022/05/15 05:17:45;;;;;;;6.30;5.50;;;15.30;97.20;;;;;;1741801;28;20249;-76
2022/05/15 05:18:36;;;;;;;6.32;5.25;;;15.30;97.20;;;;;;1742116;28;20403;-76
2022/05/15 05:19:28;;;;;;;7.00;5.28;;;15.30;97.20;;;;;;1740941;28;20191;-76
2022/05/15 05:20:19;;;;;;;6.50;5.18;;;15.40;97.20;;;;;;1741322;28;20207;-76
2022/05/15 05:21:10;;;;;;;6.73;4.80;;;15.40;97.20;;;;;;1741409;28;20226;-77
2022/05/15 05:22:02;;;;;;;5.20;4.65;;;15.40;97.20;;;;;;1741589;28;20214;-76
2022/05/15 05:22:53;;;;;;;6.13;4.35;;;15.50;97.20;;;;;;1741344;28;20612;-76
2022/05/15 05:23:44;;;;;;;8.45;4.60;;;15.50;97.20;;;;;;1740979;28;20206;-76
2022/05/15 05:24:36;;;;;;;7.37;5.37;;;15.50;97.20;;;;;;1740295;28;20201;-76
2022/05/15 05:25:27;;;;;;;5.35;4.85;;;15.50;97.20;;;;;;1740951;28;20834;-77
2022/05/15 05:26:18;;;;;;;5.33;4.70;;;15.60;97.20;;;;;;1740733;28;20586;-77
2022/05/15 05:27:09;;;;;;;7.43;5.20;;;15.60;97.20;;;;;;1740478;28;20227;-76
2022/05/15 05:28:01;;;;;;;6.43;5.40;;;15.60;97.20;;;;;;1740651;28;20211;-76
2022/05/15 05:28:52;;;;;;;7.05;4.78;;;15.60;97.20;;;;;;1740746;28;20211;-77
2022/05/15 05:29:44;;;;;;;5.80;4.60;;;15.70;97.20;;;;;;1740643;28;20195;-77
2022/05/15 05:30:35;;;;;;;5.35;4.85;;;15.70;97.20;;;;;;1741025;28;20214;-76
2022/05/15 05:31:28;;;;;;;5.28;4.70;;;15.70;97.20;;;;;;1740929;28;20198;-77
2022/05/15 05:32:18;;;;;;;6.35;5.43;;;15.80;97.20;;;;;;1741073;28;20218;-77
2022/05/15 05:33:10;;;;;;;5.50;4.83;;;15.80;97.20;;;;;;1740844;28;20217;-76
2022/05/15 05:34:01;;;;;;;5.22;4.45;;;15.90;97.20;;;;;;1741053;28;20696;-76
2022/05/15 05:34:53;;;;;;;5.33;4.70;;;15.90;97.20;;;;;;1740712;28;20850;-77
2022/05/15 05:35:44;;;;;;;4.70;4.30;;;15.90;97.20;;;;;;1741104;28;20210;-76
2022/05/15 05:36:36;;;;;;;4.95;3.90;;;15.90;97.20;;;;;;1740652;28;20557;-77
2022/05/15 05:37:27;;;;;;;4.40;3.92;;;16.00;97.20;;;;;;1741026;28;20233;-76
2022/05/15 05:38:19;;;;;;;5.10;4.33;;;16.00;97.20;;;;;;1740735;28;20233;-76
2022/05/15 05:39:10;;;;;;;4.50;4.10;;;16.00;97.20;;;;;;1741296;28;20227;-77
2022/05/15 05:40:01;;;;;;;6.13;4.57;;;16.10;97.20;;;;;;1741486;28;20206;-76
2022/05/15 05:40:52;;;;;;;7.05;4.03;;;16.10;97.20;;;;;;1741428;28;20200;-76
2022/05/15 05:41:44;;;;;;;5.37;4.50;;;16.10;97.20;;;;;;1741420;28;20706;-76
2022/05/15 05:42:35;;;;;;;4.38;3.53;;;16.20;97.20;;;;;;1741213;28;20445;-76
2022/05/15 05:43:27;;;;;;;5.97;4.30;;;16.20;97.20;;;;;;1742005;28;20747;-77
2022/05/15 05:44:18;;;;;;;5.45;4.32;;;16.20;97.20;;;;;;1743587;28;20245;-77
2022/05/15 05:45:10;;;;;;;4.73;4.30;;;16.30;97.20;;;;;;1741581;28;20199;-77
2022/05/15 05:46:00;;;;;;;4.90;4.40;;;16.30;97.20;;;;;;1741089;28;20195;-76
2022/05/15 05:46:54;;;;;;;6.37;4.50;;;16.30;97.20;;;;;;1740937;28;20233;-76
2022/05/15 05:47:46;;;;;;;4.20;3.80;;;16.40;97.20;;;;;;1741243;28;20609;-76
2022/05/15 05:48:39;;;;;;;5.40;3.92;;;16.40;97.20;;;;;;1741280;28;20292;-76
2022/05/15 05:49:29;;;;;;;6.00;4.00;;;16.50;97.20;;;;;;1741328;28;20210;-76
2022/05/15 05:50:23;;;;;;;4.27;3.87;;;16.50;97.20;;;;;;1741167;28;20202;-77
2022/05/15 05:51:15;;;;;;;5.30;3.80;;;16.50;97.20;;;;;;1741187;28;20202;-76
2022/05/15 05:52:07;;;;;;;5.72;4.28;;;16.60;97.20;;;;;;1741278;28;20206;-76
2022/05/15 05:52:59;;;;;;;6.55;4.30;;;16.60;97.20;;;;;;1741418;28;20233;-77
2022/05/15 05:53:49;;;;;;;5.57;4.00;;;16.60;97.20;;;;;;1741299;28;20206;-76
2022/05/15 05:54:41;;;;;;;4.20;3.80;;;16.70;97.20;;;;;;1740978;28;20655;-77
2022/05/15 05:55:33;;;;;;;6.28;4.40;;;16.70;97.20;;;;;;1741187;28;20223;-76
2022/05/15 05:56:24;;;;;;;5.28;4.10;;;16.70;97.20;;;;;;1741313;28;20206;-76
2022/05/15 05:57:15;;;;;;;4.30;3.72;;;16.80;97.20;;;;;;1741074;28;20207;-76
2022/05/15 05:58:07;;;;;;;4.75;3.17;;;16.80;97.20;;;;;;1741194;28;20745;-77
2022/05/15 05:58:58;;;;;;;3.65;3.13;;;16.80;97.20;;;;;;1741391;28;20210;-77
2022/05/15 05:59:50;;;;;;;4.53;3.30;;;16.90;97.20;;;;;;1741345;28;20205;-77
2022/05/15 06:00:40;;;;;;;3.92;3.63;;;16.90;97.20;;;;;;1741266;28;20195;-77
2022/05/15 06:01:32;;;;;;;5.20;4.30;;;17.00;97.20;;;;;;1741262;28;20195;-77
2022/05/15 06:02:25;;;;;;;5.20;3.40;;;17.00;97.20;;;;;;1741125;28;20222;-76
2022/05/15 06:04:41;;;;;;;3.83;3.53;;;17.10;97.20;;;;;;1741364;28;20202;-76
2022/05/15 06:05:32;;;;;;;5.20;4.50;;;17.10;97.20;;;;;;1741140;28;20681;-77
2022/05/15 06:06:23;;;;;;;4.10;3.70;;;17.10;97.20;;;;;;1741349;28;20803;-76
2022/05/15 06:07:17;;;;;;;6.67;4.03;;;17.20;97.20;;;;;;1741151;28;20206;-77
2022/05/15 06:08:08;;;;;;;6.03;3.80;;;17.20;97.20;;;;;;1741149;28;20698;-76
2022/05/15 06:09:00;;;;;;;4.30;3.90;;;17.20;97.20;;;;;;1741570;28;20631;-77
2022/05/15 06:09:51;;;;;;;4.50;4.10;;;17.30;97.20;;;;;;1741293;28;20203;-77
2022/05/15 06:10:43;;;;;;;4.83;4.40;;;17.30;97.20;;;;;;1741599;28;20199;-77
2022/05/15 06:11:34;;;;;;;4.82;4.43;;;17.30;97.20;;;;;;1741281;28;20948;-77
2022/05/15 06:12:26;;;;;;;5.83;4.40;;;17.30;97.20;;;;;;1741267;28;20718;-76
2022/05/15 06:13:17;;;;;;;5.15;4.65;;;17.40;97.20;;;;;;1740834;28;20203;-77
2022/05/15 06:14:09;;;;;;;8.43;5.97;;;17.40;97.20;;;;;;1741421;28;20203;-76
2022/05/15 06:15:00;;;;;;;6.25;4.72;;;17.40;97.20;;;;;;1741263;28;20468;-77
2022/05/15 06:15:52;;;;;;;4.72;4.22;;;17.50;97.20;;;;;;1741097;28;20239;-77
2022/05/15 06:16:43;;;;;;;8.00;4.93;;;17.50;97.20;;;;;;1740994;28;20205;-77
2022/05/15 06:17:37;;;;;;;5.40;4.65;;;17.50;97.20;;;;;;1741071;28;20202;-76
2022/05/15 06:18:27;;;;;;;4.88;4.15;;;17.50;97.20;;;;;;1741361;28;20229;-78
2022/05/15 06:19:19;;;;;;;5.43;4.30;;;17.60;97.20;;;;;;1741441;28;20268;-78
2022/05/15 06:20:10;;;;;;;6.78;4.82;;;17.60;97.20;;;;;;1741612;28;20477;-77
2022/05/15 06:21:02;;;;;;;7.22;4.93;;;17.70;97.20;;;;;;1742007;28;20199;-78
2022/05/15 06:21:53;;;;;;;6.03;3.75;;;17.80;97.20;;;;;;1741434;28;20226;-78
2022/05/15 06:22:45;;;;;;;4.77;4.10;;;17.90;97.20;;;;;;1741790;28;20202;-77
2022/05/15 06:23:36;;;;;;;7.88;4.53;;;18.00;97.20;;;;;;1742643;28;20210;-77
2022/05/15 06:24:28;;;;;;;4.93;4.20;;;18.10;97.20;;;;;;1742936;28;20191;-78
2022/05/15 06:25:19;;;;;;;3.92;3.63;;;18.20;97.20;;;;;;1735941;28;20239;-78
2022/05/15 06:26:11;;;;;;;3.97;3.57;;;18.20;97.20;;;;;;1735995;28;20204;-78
2022/05/15 06:27:03;;;;;;;5.68;3.88;;;18.30;97.20;;;;;;1739340;28;20473;-78
2022/05/15 06:27:54;;;;;;;4.65;3.95;;;18.40;97.20;;;;;;1742729;28;20687;-77
2022/05/15 06:28:45;;;;;;;4.57;4.10;;;18.50;97.20;;;;;;1743146;28;20274;-78
2022/05/15 06:29:39;;;;;;;4.23;3.70;;;18.50;97.20;;;;;;1743312;28;20221;-78
2022/05/15 06:30:30;;;;;;;5.50;4.15;;;18.60;97.20;;;;;;1743327;28;20210;-78
2022/05/15 06:31:21;;;;;;;5.50;3.80;;;18.70;97.20;;;;;;1743274;28;20222;-78
2022/05/15 06:32:12;;;;;;;5.03;3.75;;;18.70;97.20;;;;;;1742178;28;20199;-78
2022/05/15 06:33:06;;;;;;;4.13;3.70;;;18.80;97.20;;;;;;1742787;28;20199;-78
2022/05/15 06:33:57;;;;;;;7.35;3.78;;;18.90;97.20;;;;;;1742921;28;20657;-78
2022/05/15 06:34:48;;;;;;;5.57;4.10;;;18.90;97.20;;;;;;1743576;28;20224;-78
2022/05/15 06:35:39;;;;;;;3.97;3.40;;;19.00;97.20;;;;;;1743541;28;20202;-78
2022/05/15 06:36:31;;;;;;;6.57;3.83;;;19.10;97.20;;;;;;1743032;28;20199;-78
2022/05/15 06:37:23;;;;;;;5.97;3.38;;;19.10;97.20;;;;;;1743177;28;20214;-79
2022/05/15 06:38:14;;;;;;;4.70;3.38;;;19.20;97.20;;;;;;1742789;28;20218;-78
2022/05/15 06:39:05;;;;;;;3.95;3.47;;;19.30;97.20;;;;;;1743050;28;20214;-78
2022/05/15 06:39:57;;;;;;;4.50;3.37;;;19.30;97.20;;;;;;1743039;28;20680;-78
2022/05/15 06:40:48;;;;;;;5.95;3.80;;;19.40;97.20;;;;;;1742514;28;20442;-77
2022/05/15 06:41:40;;;;;;;10.83;4.57;;;19.50;97.20;;;;;;1742581;28;20191;-77
2022/05/15 06:42:31;;;;;;;4.53;3.58;;;19.50;97.20;;;;;;1742879;28;20565;-78
2022/05/15 06:43:23;;;;;;;7.60;4.47;;;19.60;97.20;;;;;;1742713;28;20615;-78
2022/05/15 06:44:13;;;;;;;4.10;3.40;;;19.60;97.20;;;;;;1742840;28;20553;-78
2022/05/15 06:45:07;;;;;;;6.60;4.00;;;19.70;97.20;;;;;;1742935;28;20261;-78
2022/05/15 06:45:57;;;;;;;5.40;3.38;;;19.70;97.20;;;;;;1742600;28;20241;-78
2022/05/15 06:46:49;;;;;;;5.30;3.63;;;19.80;97.20;;;;;;1742378;28;20210;-77
2022/05/15 06:47:40;;;;;;;4.43;3.47;;;19.80;97.20;;;;;;1740952;28;20199;-77
2022/05/15 06:48:35;;;;;;;3.87;3.47;;;19.80;97.20;;;;;;1741745;28;20203;-77
2022/05/15 06:49:25;;;;;;;4.57;3.42;;;19.90;97.20;;;;;;1742304;28;20478;-77
2022/05/15 06:50:18;;;;;;;6.30;3.40;;;20.00;97.20;;;;;;1742354;28;20199;-77
2022/05/15 06:51:09;;;;;;;5.35;3.60;;;20.00;97.20;;;;;;1741957;28;20248;-77
2022/05/15 06:52:00;;;;;;;7.77;3.07;;;20.00;97.20;;;;;;1741890;28;20257;-77
2022/05/15 06:52:51;;;;;;;4.22;3.65;;;20.10;97.20;;;;;;1741871;28;20210;-77
2022/05/15 06:53:43;;;;;;;4.73;2.90;;;20.10;97.20;;;;;;1736496;28;20202;-77
2022/05/15 06:54:34;;;;;;;3.60;3.30;;;20.10;97.20;;;;;;1735306;28;20200;-77
2022/05/15 06:55:26;;;;;;;5.53;3.70;;;20.20;97.20;;;;;;1735382;28;20278;-77
2022/05/15 06:57:29;;;;;;;3.40;3.10;;;20.30;97.20;;;;;;1735400;28;20210;-77
2022/05/15 06:58:20;;;;;;;4.53;2.97;;;20.30;97.20;;;;;;1734401;28;20809;-77
2022/05/15 06:59:12;;;;;;;6.27;2.90;;;20.30;97.20;;;;;;1734833;28;20883;-77
2022/05/15 07:00:05;;;;;;;4.82;3.38;;;20.40;97.20;;;;;;1735578;28;20242;-76
2022/05/15 07:00:57;;;;;;;3.50;3.00;;;20.40;97.20;;;;;;1739947;28;20700;-77
2022/05/15 07:01:48;;;;;;;5.85;2.90;;;20.40;97.20;;;;;;1741589;28;20199;-77
2022/05/15 07:02:41;;;;;;;6.30;3.13;;;20.50;97.20;;;;;;1742566;28;20681;-77
2022/05/15 07:03:34;;;;;;;7.05;3.40;;;20.50;97.20;;;;;;1742581;28;20203;-78
2022/05/15 07:04:25;;;;;;;3.50;3.08;;;20.50;97.20;;;;;;1742175;28;20606;-77
2022/05/15 07:05:21;;;;;;;3.72;2.97;;;20.60;97.20;;;;;;1742648;28;20203;-78
2022/05/15 07:06:13;;;;;;;4.15;3.00;;;20.70;97.20;;;;;;1742699;28;20234;-78
2022/05/15 07:07:04;;;;;;;2.72;2.45;;;20.70;97.20;;;;;;1742348;28;20203;-77
2022/05/15 07:07:56;;;;;;;6.70;2.55;;;20.70;97.20;;;;;;1742607;28;20227;-78
2022/05/15 07:08:48;;;;;;;4.57;2.80;;;20.80;97.20;;;;;;1742540;28;20211;-77
2022/05/15 07:09:39;;;;;;;5.25;3.40;;;20.80;97.20;;;;;;1742805;28;20230;-77
2022/05/15 07:10:30;;;;;;;3.60;2.88;;;20.90;97.20;;;;;;1741985;28;20212;-77
2022/05/15 07:11:22;;;;;;;6.57;2.73;;;20.90;97.20;;;;;;1742763;28;20195;-78
2022/05/15 07:12:13;;;;;;;5.68;2.75;;;20.90;97.20;;;;;;1742407;28;20234;-78
2022/05/15 07:13:05;;;;;;;4.20;2.60;;;21.00;97.20;;;;;;1742686;28;20207;-76
2022/05/15 07:13:56;;;;;;;5.90;2.58;;;21.00;97.20;;;;;;1742679;28;20611;-76
2022/05/15 07:14:47;;;;;;;4.70;3.20;;;21.10;97.20;;;;;;1742698;28;20191;-77
2022/05/15 07:15:38;;;;;;;3.78;3.05;;;21.10;97.20;;;;;;1742606;28;20444;-77
2022/05/15 07:16:30;;;;;;;3.53;2.77;;;21.20;97.20;;;;;;1741936;28;20206;-77
2022/05/15 07:17:21;;;;;;;4.68;3.03;;;21.20;97.20;;;;;;1742018;28;20456;-77
2022/05/15 07:18:12;;;;;;;2.80;2.40;;;21.20;97.20;;;;;;1742402;28;20215;-77
2022/05/15 07:19:05;;;;;;;2.85;2.45;;;21.30;97.20;;;;;;1742738;28;20215;-78
2022/05/15 07:19:57;;;;;;;3.83;2.90;;;21.30;97.20;;;;;;1742532;28;20199;-78
2022/05/15 07:20:47;;;;;;;6.03;2.53;;;21.40;97.20;;;;;;1742760;28;20202;-78
2022/05/15 07:21:39;;;;;;;5.73;3.00;;;21.40;97.20;;;;;;1742791;28;20274;-77
2022/05/15 07:22:30;;;;;;;3.95;2.83;;;21.40;97.20;;;;;;1742505;28;20227;-77
2022/05/15 07:23:22;;;;;;;3.40;2.47;;;21.50;97.20;;;;;;1743156;28;20199;-80
2022/05/15 07:24:13;;;;;;;3.25;2.88;;;21.50;97.20;;;;;;1742811;28;20473;-78
2022/05/15 07:25:06;;;;;;;3.10;2.60;;;21.60;97.20;;;;;;1743147;28;20195;-77
2022/05/15 07:25:57;;;;;;;3.53;2.60;;;21.60;97.20;;;;;;1743962;28;20687;-81
2022/05/15 07:26:48;;;;;;;2.60;2.37;;;21.70;97.20;;;;;;1743426;28;20684;-78
2022/05/15 07:27:39;;;;;;;2.90;2.53;;;21.70;97.20;;;;;;1745609;28;20441;-78
2022/05/15 07:28:31;;;;;;;4.33;2.73;;;21.70;97.20;;;;;;1744498;28;20198;-78
2022/05/15 07:29:24;;;;;;;2.92;2.30;;;21.80;97.20;;;;;;1743595;28;20226;-78
2022/05/15 07:30:16;;;;;;;2.83;2.47;;;21.80;97.20;;;;;;1743428;28;20685;-79
2022/05/15 07:31:07;;;;;;;3.13;2.42;;;21.90;97.20;;;;;;1743302;28;20609;-80
2022/05/15 07:31:59;;;;;;;2.90;2.60;;;21.90;97.20;;;;;;1743377;28;20190;-79
2022/05/15 07:32:49;;;;;;;3.33;2.45;;;21.90;97.20;;;;;;1743227;28;20230;-79
2022/05/15 07:33:42;;;;;;;2.70;2.37;;;22.00;97.20;;;;;;1743077;28;20437;-79
2022/05/15 07:34:37;;;;;;;2.95;2.65;;;22.00;97.20;;;;;;1743264;28;20433;-79
2022/05/15 07:35:29;;;;;;;3.58;2.75;;;22.10;97.20;;;;;;1743790;28;20199;-79
2022/05/15 07:36:20;;;;;;;3.42;2.78;;;22.10;97.20;;;;;;1743692;28;20340;-79
2022/05/15 07:37:12;;;;;;;5.70;4.27;;;22.20;97.20;;;;;;1743260;28;20252;-78
2022/05/15 07:38:03;;;;;;;4.65;3.47;;;22.20;97.20;;;;;;1743239;28;20321;-79
2022/05/15 07:38:55;;;;;;;3.83;3.23;;;22.20;97.20;;;;;;1743388;28;20198;-79
2022/05/15 07:39:46;;;;;;;5.47;4.97;;;22.30;97.20;;;;;;1743548;28;20207;-79
2022/05/15 07:40:37;;;;;;;6.23;3.80;;;22.30;97.20;;;;;;1743073;28;20222;-78
2022/05/15 07:41:28;;;;;;;4.20;3.03;;;22.30;97.20;;;;;;1743486;28;20453;-80
2022/05/15 07:42:20;;;;;;;4.40;3.13;;;22.30;97.20;;;;;;1743282;28;20243;-79
2022/05/15 07:43:12;;;;;;;8.27;4.88;;;22.30;97.20;;;;;;1743847;28;20290;-79
2022/05/15 07:44:04;;;;;;;7.00;3.55;;;22.30;97.20;;;;;;1743821;28;20214;-78
2022/05/15 07:44:57;;;;;;;3.65;3.03;;;22.30;97.20;;;;;;1743473;28;20207;-78
2022/05/15 07:45:49;;;;;;;3.15;2.85;;;22.30;97.20;;;;;;1743641;28;20205;-79
2022/05/15 07:46:40;;;;;;;3.60;3.30;;;22.30;97.20;;;;;;1743621;28;20206;-79
2022/05/15 07:47:31;;;;;;;3.63;3.20;;;22.30;97.20;;;;;;1742979;28;20199;-79
2022/05/15 07:48:22;;;;;;;3.65;3.13;;;22.40;97.20;;;;;;1742677;28;20223;-79
2022/05/15 07:49:15;;;;;;;2.60;2.40;;;22.40;97.20;;;;;;1743040;28;20198;-78
2022/05/15 07:50:09;;;;;;;4.53;3.53;;;22.40;97.20;;;;;;1742954;28;20210;-79
2022/05/15 07:51:00;;;;;;;3.13;2.60;;;22.50;97.20;;;;;;1742547;28;20207;-79
2022/05/15 07:51:51;;;;;;;4.10;2.53;;;22.50;97.20;;;;;;1742488;28;20237;-78
2022/05/15 07:52:43;;;;;;;5.27;2.87;;;22.60;97.20;;;;;;1742568;28;20188;-79
2022/05/15 07:53:34;;;;;;;4.90;4.00;;;22.70;97.20;;;;;;1742573;28;20199;-80
2022/05/15 07:54:25;;;;;;;4.73;2.63;;;22.70;97.20;;;;;;1742500;28;20209;-79
2022/05/15 07:55:16;;;;;;;4.80;2.40;;;22.80;97.20;;;;;;1742326;28;20445;-79
2022/05/15 07:56:12;;;;;;;3.65;2.67;;;22.80;97.20;;;;;;1742374;28;20667;-79
2022/05/15 07:57:04;;;;;;;4.05;2.22;;;22.90;97.20;;;;;;1742167;28;20214;-79
2022/05/15 07:57:55;;;;;;;5.03;2.55;;;22.90;97.20;;;;;;1742324;28;20219;-79
2022/05/15 07:58:55;;;;;;;4.22;2.45;;;23.00;97.20;;;;;;1742461;28;20200;-79
2022/05/15 08:03:16;;;;;;;3.22;2.22;;;23.20;97.20;;;;;;1727693;28;20204;-79
2022/05/15 08:04:13;;;;;;;3.75;2.40;;;23.20;97.20;;;;;;1735618;28;20582;-79
2022/05/15 08:08:42;;;;;;;8.82;7.93;;;23.30;97.20;;;;;;1735754;28;20195;-79
2022/05/15 08:09:33;;;;;;;7.97;7.28;;;23.40;97.20;;;;;;1735543;28;20207;-79
2022/05/15 08:10:25;;;;;;;7.77;4.10;;;23.40;97.20;;;;;;1736736;28;20210;-79
2022/05/15 08:11:16;;;;;;;4.18;2.92;;;23.50;97.20;;;;;;1742545;28;20245;-79
2022/05/15 08:12:09;;;;;;;4.03;2.53;;;23.50;97.20;;;;;;1742622;28;20199;-79
2022/05/15 08:13:00;;;;;;;5.63;3.30;;;23.50;97.20;;;;;;1742323;28;20206;-79
2022/05/15 08:13:52;;;;;;;4.20;3.20;;;23.50;97.20;;;;;;1742814;28;20195;-79
2022/05/15 08:14:43;;;;;;;2.25;2.05;;;23.60;97.20;;;;;;1742552;28;20207;-79
2022/05/15 08:15:36;;;;;;;7.73;2.60;;;23.60;97.20;;;;;;1742996;28;20203;-79
2022/05/15 08:16:29;;;;;;;3.60;2.55;;;23.70;97.20;;;;;;1742541;28;20583;-79
2022/05/15 08:17:20;;;;;;;3.75;2.42;;;23.70;97.20;;;;;;1742267;28;20238;-79
2022/05/15 08:24:06;;;;;;;3.47;1.95;;;24.00;97.20;;;;;;1733848;28;20205;-79
2022/05/15 08:24:58;;;;;;;3.15;2.00;;;24.10;97.20;;;;;;1743030;28;20234;-79
2022/05/15 08:25:49;;;;;;;2.65;2.40;;;24.10;97.20;;;;;;1744717;28;20218;-77
2022/05/15 08:26:41;;;;;;;3.78;2.20;;;24.20;97.20;;;;;;1750114;28;20183;-77
2022/05/15 08:27:33;;;;;;;2.65;2.20;;;24.20;97.20;;;;;;1743865;28;20203;-78
2022/05/15 08:28:24;;;;;;;2.85;2.05;;;24.20;97.20;;;;;;1742141;28;20721;-79
2022/05/15 08:29:15;;;;;;;3.27;2.17;;;24.30;97.20;;;;;;1742750;28;20565;-79
2022/05/15 08:30:08;;;;;;;3.40;1.90;;;24.30;97.20;;;;;;1742718;28;20230;-79
2022/05/15 08:31:00;;;;;;;4.47;2.25;;;24.40;97.20;;;;;;1742809;28;20274;-79
2022/05/15 08:31:50;;;;;;;3.08;1.98;;;24.50;97.20;;;;;;1742810;28;20203;-78
2022/05/15 08:32:42;;;;;;;2.80;2.20;;;24.50;97.20;;;;;;1743023;28;20207;-80
2022/05/15 08:33:33;;;;;;;3.92;2.55;;;24.60;97.20;;;;;;1742507;28;20488;-79
2022/05/15 08:34:25;;;;;;;2.73;2.40;;;24.60;97.20;;;;;;1742797;28;20199;-80
2022/05/15 08:35:16;;;;;;;3.28;2.40;;;24.70;97.20;;;;;;1742549;28;20203;-79
2022/05/15 08:36:10;;;;;;;3.08;2.20;;;24.70;97.20;;;;;;1742995;28;20207;-79
2022/05/15 08:37:01;;;;;;;2.75;1.75;;;24.80;97.20;;;;;;1742254;28;20290;-79
2022/05/15 08:37:53;;;;;;;2.67;2.30;;;24.80;97.20;;;;;;1742501;28;20191;-79
2022/05/15 08:38:45;;;;;;;2.22;2.03;;;24.90;97.20;;;;;;1742361;28;20256;-79
2022/05/15 08:39:36;;;;;;;2.53;1.80;;;24.90;97.20;;;;;;1742443;28;20681;-79
2022/05/15 08:40:34;;;;;;;2.63;2.00;;;24.90;97.20;;;;;;1742776;28;20580;-78
2022/05/15 08:41:35;;;;;;;4.38;2.53;;;25.00;97.20;;;;;;1742575;28;20290;-79
2022/05/15 08:42:41;;;;;;;2.97;1.85;;;25.00;97.20;;;;;;1742566;28;20203;-80
2022/05/15 08:43:41;;;;;;;3.45;2.10;;;25.00;97.20;;;;;;1735140;28;20196;-79
2022/05/15 08:44:38;;;;;;;3.28;2.33;;;25.10;97.20;;;;;;1735357;28;20559;-79
2022/05/15 08:45:32;;;;;;;5.63;2.38;;;25.10;97.20;;;;;;1734911;28;20573;-79
2022/05/15 08:46:35;;;;;;;3.83;2.10;;;25.10;97.20;;;;;;1735713;28;20559;-79
2022/05/15 08:47:34;;;;;;;2.92;2.40;;;25.10;97.20;;;;;;1735490;28;20246;-79
2022/05/15 08:48:27;;;;;;;3.45;1.77;;;25.20;97.20;;;;;;1735486;28;20204;-79
2022/05/15 08:49:25;;;;;;;4.00;2.05;;;25.20;97.20;;;;;;1735256;28;20200;-80
2022/05/15 08:50:18;;;;;;;4.57;2.10;;;25.20;97.20;;;;;;1736213;28;20208;-79
2022/05/15 08:51:14;;;;;;;3.83;2.15;;;25.20;97.20;;;;;;1735633;28;20204;-79
2022/05/15 08:52:09;;;;;;;5.07;2.45;;;25.20;97.20;;;;;;1735695;28;20204;-79
2022/05/15 08:53:05;;;;;;;3.70;1.90;;;25.30;97.20;;;;;;1735463;28;20222;-79
2022/05/15 08:53:57;;;;;;;3.60;1.92;;;25.30;97.20;;;;;;1735382;28;20250;-79
2022/05/15 08:54:55;;;;;;;3.65;1.92;;;25.30;97.20;;;;;;1735070;28;20203;-79
2022/05/15 08:55:50;;;;;;;4.38;2.47;;;25.40;97.20;;;;;;1735594;28;20215;-79
2022/05/15 08:56:47;;;;;;;4.05;2.30;;;25.40;97.20;;;;;;1734887;28;20204;-79
2022/05/15 08:57:44;;;;;;;3.75;1.92;;;25.40;97.20;;;;;;1740555;28;20202;-79
2022/05/15 08:58:45;;;;;;;3.80;2.20;;;25.40;97.20;;;;;;1742181;28;20578;-79
2022/05/15 08:59:45;;;;;;;3.40;2.05;;;25.40;97.20;;;;;;1742041;28;20226;-79
2022/05/15 09:00:42;;;;;;;4.65;2.08;;;25.50;97.20;;;;;;1742118;28;20205;-79
2022/05/15 09:01:33;;;;;;;3.95;2.15;;;25.50;97.20;;;;;;1741972;28;20211;-80
2022/05/15 09:02:25;;;;;;;5.30;2.00;;;25.50;97.20;;;;;;1742075;28;20202;-79
2022/05/15 09:03:19;;;;;;;3.65;2.00;;;25.60;97.20;;;;;;1742099;28;20223;-79
2022/05/15 09:04:10;;;;;;;2.78;1.77;;;25.60;97.20;;;;;;1742331;28;20686;-78
2022/05/15 09:05:01;;;;;;;2.78;1.92;;;25.60;97.20;;;;;;1742088;28;20662;-79
2022/05/15 09:05:56;;;;;;;3.75;2.17;;;25.70;97.20;;;;;;1742022;28;20299;-79
2022/05/15 09:06:59;;;;;;;3.45;2.25;;;25.70;97.20;;;;;;1741926;28;20203;-78
2022/05/15 09:07:59;;;;;;;3.10;2.10;;;25.80;97.20;;;;;;1741792;28;20234;-79
2022/05/15 09:09:06;;;;;;;2.75;2.15;;;25.80;97.20;;;;;;1742049;28;20195;-78
2022/05/15 09:10:11;;;;;;;2.25;2.00;;;25.90;97.20;;;;;;1741897;28;20203;-80
2022/05/15 09:11:06;;;;;;;3.53;1.70;;;26.00;97.20;;;;;;1741894;28;20297;-79
2022/05/15 09:12:03;;;;;;;2.90;2.47;;;26.00;97.20;;;;;;1741722;28;20207;-79
2022/05/15 09:13:03;;;;;;;3.53;2.00;;;26.10;97.20;;;;;;1741986;28;20713;-79
2022/05/15 09:14:01;;;;;;;3.45;1.80;;;26.10;97.20;;;;;;1741659;28;20191;-79
2022/05/15 09:15:04;;;;;;;3.17;1.70;;;26.10;97.20;;;;;;1741925;28;20211;-80
2022/05/15 09:15:59;;;;;;;3.00;1.95;;;26.20;97.20;;;;;;1742143;28;20663;-79
2022/05/15 09:16:54;;;;;;;5.95;2.00;;;26.20;97.20;;;;;;1741413;28;20256;-78
2022/05/15 09:17:50;;;;;;;4.38;1.90;;;26.20;97.20;;;;;;1741593;28;20257;-79
2022/05/15 09:18:41;;;;;;;2.47;1.88;;;26.20;97.20;;;;;;1741768;28;20199;-79
2022/05/15 09:19:32;;;;;;;4.00;2.80;;;26.30;97.20;;;;;;1741633;28;20221;-80
2022/05/15 09:20:46;;;;;;;4.38;2.00;;;26.30;97.20;;;;;;1741950;28;20460;-79
2022/05/15 09:21:36;;;;;;;4.07;1.80;;;26.40;97.20;;;;;;1741792;28;20208;-79
2022/05/15 09:22:34;;;;;;;4.10;2.27;;;26.40;97.20;;;;;;1741789;28;20195;-79
2022/05/15 09:23:29;;;;;;;2.60;1.92;;;26.40;97.20;;;;;;1741683;28;20272;-79
2022/05/15 09:24:32;;;;;;;5.20;2.00;;;26.40;97.20;;;;;;1741661;28;20658;-79
2022/05/15 09:25:25;;;;;;;2.85;2.20;;;26.50;97.20;;;;;;1742252;28;20246;-79
2022/05/15 09:26:20;;;;;;;5.13;2.13;;;26.50;97.20;;;;;;1741960;28;20241;-79
2022/05/15 09:27:14;;;;;;;3.30;2.50;;;26.50;97.20;;;;;;1741973;28;20654;-79
2022/05/15 09:28:07;;;;;;;3.15;1.90;;;26.60;97.20;;;;;;1741816;28;20223;-79
2022/05/15 09:29:01;;;;;;;4.00;2.03;;;26.60;97.20;;;;;;1741942;28;20198;-79
2022/05/15 09:29:53;;;;;;;3.55;1.98;;;26.60;97.20;;;;;;1741835;28;20211;-79
2022/05/15 09:30:47;;;;;;;2.38;2.05;;;26.70;97.20;;;;;;1741464;28;20221;-77
2022/05/15 09:31:42;;;;;;;3.78;1.85;;;26.70;97.20;;;;;;1734863;28;20477;-79
2022/05/15 09:32:39;;;;;;;2.22;2.03;;;26.70;97.20;;;;;;1734502;28;20203;-79
2022/05/15 09:33:32;;;;;;;2.10;1.90;;;26.80;97.20;;;;;;1740522;28;20207;-79
2022/05/15 09:34:27;;;;;;;2.75;2.10;;;26.80;97.20;;;;;;1741596;28;20210;-80
2022/05/15 09:35:31;;;;;;;1.95;1.75;;;26.90;97.20;;;;;;1741443;28;20717;-79
2022/05/15 09:36:26;;;;;;;4.55;2.20;;;26.90;97.20;;;;;;1736842;28;20235;-80
2022/05/15 09:38:39;;;;;;;3.58;1.90;;;27.00;97.20;;;;;;1741848;28;20249;-79
2022/05/15 09:39:42;;;;;;;3.00;2.10;;;27.10;97.20;;;;;;1741822;28;20230;-80
2022/05/15 09:40:39;;;;;;;2.95;2.08;;;27.10;97.20;;;;;;1742257;28;20211;-79
2022/05/15 09:44:02;;;;;;;2.10;1.60;;;27.20;97.20;;;;;;1741350;28;20210;-79
2022/05/15 09:44:53;;;;;;;2.08;1.75;;;27.30;97.20;;;;;;1741501;28;20202;-79
2022/05/15 09:45:55;;;;;;;4.73;2.20;;;27.30;96.70;;;;;;1741499;28;20199;-79
2022/05/15 09:46:57;;;;;;;5.15;2.17;;;27.30;96.50;;;;;;1741369;28;20207;-79
2022/05/15 09:48:02;;;;;;;3.42;1.90;;;27.30;96.80;;;;;;1736974;28;20254;-79
2022/05/15 09:48:57;;;;;;;3.80;2.05;;;27.30;97.00;;;;;;1741520;28;20223;-79
2022/05/15 09:49:48;;;;;;;5.13;1.77;;;27.30;97.00;;;;;;1741217;28;20597;-77
2022/05/15 09:50:44;;;;;;;3.70;2.00;;;27.30;96.80;;;;;;1741141;28;20591;-76
2022/05/15 09:51:43;;;;;;;2.10;1.90;;;27.40;96.70;;;;;;1741432;28;20445;-77
2022/05/15 09:52:39;;;;;;;2.05;1.75;;;27.40;96.40;;;;;;1741288;28;20210;-77
2022/05/15 09:53:41;;;;;;;4.35;2.00;;;27.40;96.50;;;;;;1741279;28;20207;-76
2022/05/15 09:54:43;;;;;;;4.22;2.05;;;27.40;96.40;;;;;;1741229;28;20207;-77
2022/05/15 09:55:34;;;;;;;2.80;1.80;;;27.40;95.90;;;;;;1741025;28;20252;-77